Time;durP1;ratioP1;P1;durP2;ratioP2;P2;SDS_P1;SDS_P2;PMS_P1;PMS_P2;Temp;Humidity;BMP_temperature;BMP_pressure;BME280_temperature;BME280_humidity;BME280_pressure;Samples;Min_cycle;Max_cycle;Signal;HPM_P1;HPM_P2
2022/03/16 00:00:21;;;;;;;1.10;1.10;;;;;;;;;;6099980;23;20179;-82
2022/03/16 00:02:50;;;;;;;0.60;0.60;;;;;;;;;;6126628;23;20175;-82
2022/03/16 00:05:20;;;;;;;0.60;0.60;;;;;;;;;;6126142;23;20234;-82
2022/03/16 00:07:48;;;;;;;0.63;0.63;;;;;;;;;;6100726;23;20172;-82
2022/03/16 00:10:16;;;;;;;1.03;1.03;;;;;;;;;;6100613;23;20238;-80
2022/03/16 00:12:45;;;;;;;0.90;0.90;;;;;;;;;;6100566;23;20176;-79
2022/03/16 00:15:13;;;;;;;0.70;0.70;;;;;;;;;;6126331;23;20176;-81
2022/03/16 00:17:42;;;;;;;0.70;0.70;;;;;;;;;;6100253;23;20210;-81
2022/03/16 00:20:11;;;;;;;13.60;9.50;;;;;;;;;;6126115;23;20243;-81
2022/03/16 00:22:41;;;;;;;12.30;7.53;;;;;;;;;;6099684;23;20182;-81
2022/03/16 00:25:10;;;;;;;13.03;9.17;;;;;;;;;;6100261;23;20178;-81
2022/03/16 00:27:39;;;;;;;11.30;9.60;;;;;;;;;;6126021;23;20265;-81
2022/03/16 00:30:08;;;;;;;8.67;6.60;;;;;;;;;;6100850;23;20215;-81
2022/03/16 00:32:37;;;;;;;0.77;0.77;;;;;;;;;;6125723;23;20179;-82
2022/03/16 00:35:05;;;;;;;6.67;4.90;;;;;;;;;;6125691;23;20179;-81
2022/03/16 00:37:34;;;;;;;4.40;3.43;;;;;;;;;;6125983;23;20177;-81
2022/03/16 00:40:04;;;;;;;3.97;3.67;;;;;;;;;;6126147;23;20233;-81
2022/03/16 00:42:33;;;;;;;2.70;2.50;;;;;;;;;;6100018;23;20185;-81
2022/03/16 00:45:01;;;;;;;1.83;1.83;;;;;;;;;;6100100;23;20175;-82
2022/03/16 00:47:29;;;;;;;6.27;5.63;;;;;;;;;;6100013;23;20181;-81
2022/03/16 00:49:58;;;;;;;1.27;1.20;;;;;;;;;;6100109;23;20178;-81
2022/03/16 00:52:26;;;;;;;20.03;9.93;;;;;;;;;;6100024;23;20174;-81
2022/03/16 00:54:54;;;;;;;5.37;3.87;;;;;;;;;;6100049;23;20218;-81
2022/03/16 00:57:24;;;;;;;0.60;0.60;;;;;;;;;;6099950;23;20198;-81
2022/03/16 00:59:53;;;;;;;1.10;1.00;;;;;;;;;;6099985;23;20195;-81
2022/03/16 01:02:21;;;;;;;1.10;1.10;;;;;;;;;;6100646;23;20188;-81
2022/03/16 01:04:50;;;;;;;1.20;1.20;;;;;;;;;;6100427;23;20203;-81
2022/03/16 01:07:18;;;;;;;0.70;0.70;;;;;;;;;;6100238;23;20192;-81
2022/03/16 01:09:47;;;;;;;0.70;0.70;;;;;;;;;;6100380;23;20183;-81
2022/03/16 01:12:15;;;;;;;0.90;0.90;;;;;;;;;;6127068;23;20177;-81
2022/03/16 01:14:45;;;;;;;17.23;11.40;;;;;;;;;;6102281;23;20177;-81
2022/03/16 01:17:13;;;;;;;4.47;4.07;;;;;;;;;;6127813;23;20171;-81
2022/03/16 01:19:42;;;;;;;1.10;1.10;;;;;;;;;;6101816;23;20202;-81
2022/03/16 01:22:10;;;;;;;2.00;2.00;;;;;;;;;;6102163;23;20210;-81
2022/03/16 01:24:39;;;;;;;3.37;3.23;;;;;;;;;;6101976;23;20186;-81
2022/03/16 01:27:07;;;;;;;1.10;1.10;;;;;;;;;;6127254;23;20174;-81
2022/03/16 01:29:36;;;;;;;0.70;0.70;;;;;;;;;;6102014;23;20186;-81
2022/03/16 01:32:06;;;;;;;2.10;2.10;;;;;;;;;;6101399;23;20174;-81
2022/03/16 01:34:35;;;;;;;1.43;1.43;;;;;;;;;;6101834;23;20182;-81
2022/03/16 01:37:04;;;;;;;3.60;3.30;;;;;;;;;;6127569;23;20175;-81
2022/03/16 01:39:33;;;;;;;0.73;0.73;;;;;;;;;;6127690;23;20201;-81
2022/03/16 01:42:01;;;;;;;27.57;3.73;;;;;;;;;;6127190;23;20205;-82
2022/03/16 01:44:42;;;;;;;0.70;0.70;;;;;;;;;;6101898;23;20182;-81
2022/03/16 01:47:12;;;;;;;0.70;0.70;;;;;;;;;;6101416;23;20183;-81
2022/03/16 01:49:41;;;;;;;0.60;0.60;;;;;;;;;;6101916;23;20178;-82
2022/03/16 01:52:10;;;;;;;0.93;0.93;;;;;;;;;;6101763;23;20260;-81
2022/03/16 01:54:40;;;;;;;0.70;0.70;;;;;;;;;;6101697;23;20214;-81
2022/03/16 01:57:09;;;;;;;0.90;0.90;;;;;;;;;;6101654;23;20179;-81
2022/03/16 01:59:38;;;;;;;1.87;1.77;;;;;;;;;;6101048;23;20200;-82
2022/03/16 02:02:06;;;;;;;8.50;3.43;;;;;;;;;;6101042;23;20183;-81
2022/03/16 02:04:37;;;;;;;2.87;2.67;;;;;;;;;;6100817;23;20205;-82
2022/03/16 02:07:05;;;;;;;2.10;1.80;;;;;;;;;;6101451;23;20187;-81
2022/03/16 02:09:34;;;;;;;6.87;6.57;;;;;;;;;;6101341;23;20182;-81
2022/03/16 02:12:03;;;;;;;2.20;2.10;;;;;;;;;;6127074;23;20189;-81
2022/03/16 02:14:31;;;;;;;0.90;0.90;;;;;;;;;;6101426;23;20179;-81
2022/03/16 02:17:02;;;;;;;0.97;0.97;;;;;;;;;;6101350;23;20179;-81
2022/03/16 02:19:32;;;;;;;1.03;1.03;;;;;;;;;;6126725;23;20195;-81
2022/03/16 02:22:03;;;;;;;3.90;3.37;;;;;;;;;;6101420;23;20191;-81
2022/03/16 02:24:33;;;;;;;1.00;1.00;;;;;;;;;;6101089;23;20182;-81
2022/03/16 02:27:02;;;;;;;0.97;0.97;;;;;;;;;;6101452;23;20245;-81
2022/03/16 02:29:30;;;;;;;2.13;2.07;;;;;;;;;;6101304;23;20181;-81
2022/03/16 02:31:58;;;;;;;1.40;1.40;;;;;;;;;;6101633;23;20198;-82
2022/03/16 02:34:27;;;;;;;5.17;3.83;;;;;;;;;;6101427;23;20178;-81
2022/03/16 02:36:56;;;;;;;7.40;3.10;;;;;;;;;;6101513;23;20199;-81
2022/03/16 02:39:24;;;;;;;7.10;6.03;;;;;;;;;;6101238;23;20198;-81
2022/03/16 02:41:54;;;;;;;3.60;2.90;;;;;;;;;;6101114;23;20178;-81
2022/03/16 02:44:23;;;;;;;4.97;4.47;;;;;;;;;;6126475;23;20175;-81
2022/03/16 02:46:51;;;;;;;4.43;4.03;;;;;;;;;;6126573;23;20180;-81
2022/03/16 02:49:20;;;;;;;7.43;6.03;;;;;;;;;;6100642;23;20182;-81
2022/03/16 02:51:48;;;;;;;13.10;8.60;;;;;;;;;;6100443;23;20178;-81
2022/03/16 02:54:16;;;;;;;11.13;8.00;;;;;;;;;;6100777;23;20204;-81
2022/03/16 02:56:47;;;;;;;6.97;6.23;;;;;;;;;;6100606;23;20238;-81
2022/03/16 02:59:17;;;;;;;3.70;3.10;;;;;;;;;;6100789;23;20200;-81
2022/03/16 03:01:45;;;;;;;3.43;3.13;;;;;;;;;;6126512;23;20184;-81
2022/03/16 03:04:14;;;;;;;7.43;4.57;;;;;;;;;;6100496;23;20194;-81
2022/03/16 03:06:43;;;;;;;4.10;3.63;;;;;;;;;;6126575;23;20185;-81
2022/03/16 03:09:11;;;;;;;4.57;3.03;;;;;;;;;;6126273;23;20178;-81
2022/03/16 03:11:40;;;;;;;2.70;2.60;;;;;;;;;;6126768;23;20232;-81
2022/03/16 03:14:08;;;;;;;2.77;2.67;;;;;;;;;;6100696;23;20223;-82
2022/03/16 03:16:38;;;;;;;3.50;3.30;;;;;;;;;;6100633;23;20185;-81
2022/03/16 03:19:06;;;;;;;9.27;5.87;;;;;;;;;;6100814;23;20184;-81
2022/03/16 03:21:35;;;;;;;3.60;3.37;;;;;;;;;;6101297;23;20200;-81
2022/03/16 03:24:04;;;;;;;2.83;2.63;;;;;;;;;;6100767;23;20204;-81
2022/03/16 03:26:35;;;;;;;6.30;4.77;;;;;;;;;;6101249;23;20206;-81
2022/03/16 03:29:04;;;;;;;2.00;1.90;;;;;;;;;;6126564;23;20182;-81
2022/03/16 03:31:32;;;;;;;9.27;8.00;;;;;;;;;;6126131;23;20242;-81
2022/03/16 03:34:02;;;;;;;4.00;3.67;;;;;;;;;;6100172;23;20184;-81
2022/03/16 03:36:31;;;;;;;9.37;8.00;;;;;;;;;;6126685;23;20170;-81
2022/03/16 03:38:59;;;;;;;3.20;2.93;;;;;;;;;;6100290;23;20177;-81
2022/03/16 03:41:28;;;;;;;8.87;6.13;;;;;;;;;;6100249;23;20208;-80
2022/03/16 03:43:56;;;;;;;16.43;11.27;;;;;;;;;;6100714;23;20187;-81
2022/03/16 03:46:25;;;;;;;9.67;8.20;;;;;;;;;;6126179;23;20172;-81
2022/03/16 03:48:53;;;;;;;5.03;4.63;;;;;;;;;;6126035;23;20251;-81
2022/03/16 03:51:23;;;;;;;11.60;9.80;;;;;;;;;;6100387;23;20199;-81
2022/03/16 03:53:52;;;;;;;8.67;7.23;;;;;;;;;;6100159;23;20250;-81
2022/03/16 03:56:20;;;;;;;10.10;8.43;;;;;;;;;;6126508;23;20206;-81
2022/03/16 03:58:48;;;;;;;15.40;10.60;;;;;;;;;;6126095;23;20203;-81
2022/03/16 04:01:17;;;;;;;8.63;7.73;;;;;;;;;;6100694;23;20240;-81
2022/03/16 04:03:45;;;;;;;15.13;13.00;;;;;;;;;;6100973;23;20196;-81
2022/03/16 04:06:14;;;;;;;12.27;7.83;;;;;;;;;;6126232;23;20170;-81
2022/03/16 04:08:44;;;;;;;16.60;9.47;;;;;;;;;;6100255;23;20184;-81
2022/03/16 04:11:13;;;;;;;23.87;13.77;;;;;;;;;;6100737;23;20182;-81
2022/03/16 04:13:41;;;;;;;9.63;7.83;;;;;;;;;;6100250;23;20220;-81
2022/03/16 04:16:09;;;;;;;19.43;12.70;;;;;;;;;;6100075;23;20211;-81
2022/03/16 04:18:38;;;;;;;23.90;11.70;;;;;;;;;;6100658;23;20188;-81
2022/03/16 04:21:06;;;;;;;16.57;12.10;;;;;;;;;;6100114;23;20268;-81
2022/03/16 04:23:35;;;;;;;34.33;19.60;;;;;;;;;;6100274;23;20185;-81
2022/03/16 04:26:04;;;;;;;12.07;10.30;;;;;;;;;;6125976;23;20172;-81
2022/03/16 04:28:33;;;;;;;14.67;10.10;;;;;;;;;;6099802;23;20189;-81
2022/03/16 04:31:02;;;;;;;17.50;13.87;;;;;;;;;;6100618;23;20176;-81
2022/03/16 04:33:31;;;;;;;18.30;12.63;;;;;;;;;;6126123;23;20238;-81
2022/03/16 04:35:59;;;;;;;27.20;17.63;;;;;;;;;;6126102;23;20177;-81
2022/03/16 04:38:27;;;;;;;23.87;16.43;;;;;;;;;;6099793;23;20177;-82
2022/03/16 04:40:56;;;;;;;28.77;17.50;;;;;;;;;;6125749;23;20199;-82
2022/03/16 04:43:26;;;;;;;33.80;22.97;;;;;;;;;;6125787;23;20196;-81
2022/03/16 04:45:54;;;;;;;31.30;21.00;;;;;;;;;;6100159;23;20183;-81
2022/03/16 04:48:23;;;;;;;33.37;18.10;;;;;;;;;;6099976;23;20246;-81
2022/03/16 04:50:51;;;;;;;30.23;18.13;;;;;;;;;;6126048;23;20174;-81
2022/03/16 04:53:19;;;;;;;19.60;14.13;;;;;;;;;;6100298;23;20180;-81
2022/03/16 04:55:48;;;;;;;26.50;19.90;;;;;;;;;;6125621;23;20208;-81
2022/03/16 04:58:16;;;;;;;26.43;16.17;;;;;;;;;;6100128;23;20182;-81
2022/03/16 05:00:46;;;;;;;32.00;20.57;;;;;;;;;;6100249;23;20202;-81
2022/03/16 05:03:16;;;;;;;26.60;18.53;;;;;;;;;;6125784;23;20279;-81
2022/03/16 05:05:44;;;;;;;21.87;16.97;;;;;;;;;;6125294;23;20217;-81
2022/03/16 05:08:13;;;;;;;35.60;25.13;;;;;;;;;;6099905;23;20173;-81
2022/03/16 05:10:41;;;;;;;39.53;25.00;;;;;;;;;;6099692;23;20176;-81
2022/03/16 05:13:09;;;;;;;35.37;24.37;;;;;;;;;;6100068;23;20182;-81
2022/03/16 05:15:38;;;;;;;21.00;16.70;;;;;;;;;;6099640;23;20177;-81
2022/03/16 05:18:08;;;;;;;30.90;22.40;;;;;;;;;;6126107;23;20179;-81
2022/03/16 05:20:37;;;;;;;34.00;22.17;;;;;;;;;;6125528;23;20265;-81
2022/03/16 05:23:05;;;;;;;36.00;23.40;;;;;;;;;;6100126;23;20209;-81
2022/03/16 05:25:33;;;;;;;29.83;22.30;;;;;;;;;;6100120;23;20181;-81
2022/03/16 05:28:02;;;;;;;33.70;23.27;;;;;;;;;;6099693;23;20177;-81
2022/03/16 05:30:30;;;;;;;35.90;23.07;;;;;;;;;;6100004;23;20177;-81
2022/03/16 05:33:00;;;;;;;35.50;19.47;;;;;;;;;;6099638;23;20197;-81
2022/03/16 05:35:31;;;;;;;31.97;22.10;;;;;;;;;;6125464;23;20196;-81
2022/03/16 05:38:00;;;;;;;28.53;20.63;;;;;;;;;;6100081;23;20182;-81
2022/03/16 05:40:28;;;;;;;30.47;17.83;;;;;;;;;;6099783;23;20178;-81
2022/03/16 05:42:57;;;;;;;29.33;15.90;;;;;;;;;;6099461;23;20185;-81
2022/03/16 05:45:25;;;;;;;31.93;21.37;;;;;;;;;;6099608;23;20264;-81
2022/03/16 05:47:54;;;;;;;26.63;18.80;;;;;;;;;;6099446;23;20186;-81
2022/03/16 05:50:22;;;;;;;25.73;15.90;;;;;;;;;;6099665;23;20232;-81
2022/03/16 05:52:52;;;;;;;24.97;16.27;;;;;;;;;;6125463;23;20176;-81
2022/03/16 05:55:20;;;;;;;13.23;11.13;;;;;;;;;;6125076;23;20201;-80
2022/03/16 05:57:49;;;;;;;19.33;8.60;;;;;;;;;;6125208;23;20200;-81
2022/03/16 06:00:18;;;;;;;11.77;9.03;;;;;;;;;;6127065;23;20187;-81
2022/03/16 06:02:47;;;;;;;15.40;11.30;;;;;;;;;;6101450;23;20196;-81
2022/03/16 06:05:17;;;;;;;15.40;10.70;;;;;;;;;;6126761;23;20224;-81
2022/03/16 06:07:45;;;;;;;15.13;8.70;;;;;;;;;;6101259;23;20181;-81
2022/03/16 06:10:17;;;;;;;19.00;12.37;;;;;;;;;;6101027;23;20178;-80
2022/03/16 06:12:52;;;;;;;25.17;17.50;;;;;;;;;;6101103;23;20176;-81
2022/03/16 06:15:21;;;;;;;24.70;18.33;;;;;;;;;;6101177;23;20179;-81
2022/03/16 06:17:49;;;;;;;22.57;15.57;;;;;;;;;;6100996;23;20181;-81
2022/03/16 06:20:18;;;;;;;22.77;15.23;;;;;;;;;;6100859;23;20184;-81
2022/03/16 06:22:46;;;;;;;25.67;16.93;;;;;;;;;;6126748;23;20185;-81
2022/03/16 06:25:16;;;;;;;22.83;16.50;;;;;;;;;;6101263;23;20188;-80
2022/03/16 06:27:45;;;;;;;25.77;18.63;;;;;;;;;;6126605;23;20200;-80
2022/03/16 06:30:13;;;;;;;12.93;10.37;;;;;;;;;;6101286;23;20203;-82
2022/03/16 06:32:44;;;;;;;21.93;16.77;;;;;;;;;;6101064;23;20180;-81
2022/03/16 06:35:13;;;;;;;22.93;15.40;;;;;;;;;;6101613;23;20178;-81
2022/03/16 06:37:41;;;;;;;17.70;12.67;;;;;;;;;;6100809;23;20173;-81
2022/03/16 06:40:11;;;;;;;17.90;13.43;;;;;;;;;;6100777;23;20173;-81
2022/03/16 06:42:47;;;;;;;19.83;14.07;;;;;;;;;;6126525;23;20295;-81
2022/03/16 06:45:16;;;;;;;22.20;15.17;;;;;;;;;;6100941;23;20267;-81
2022/03/16 06:47:44;;;;;;;19.10;13.47;;;;;;;;;;6100802;23;20210;-81
2022/03/16 06:50:13;;;;;;;14.00;10.57;;;;;;;;;;6100663;23;20177;-81
2022/03/16 06:52:41;;;;;;;20.30;14.40;;;;;;;;;;6100660;23;20176;-81
2022/03/16 06:55:10;;;;;;;21.50;15.93;;;;;;;;;;6100464;23;20267;-81
2022/03/16 06:57:38;;;;;;;23.10;17.67;;;;;;;;;;6101136;23;20225;-80
2022/03/16 07:00:13;;;;;;;17.13;13.77;;;;;;;;;;6100695;23;20225;-81
2022/03/16 07:02:51;;;;;;;17.80;12.47;;;;;;;;;;6100556;23;20220;-81
2022/03/16 07:05:20;;;;;;;24.97;17.23;;;;;;;;;;6126629;23;20184;-81
2022/03/16 07:07:50;;;;;;;20.67;13.87;;;;;;;;;;6100454;23;20188;-81
2022/03/16 07:10:20;;;;;;;23.67;16.73;;;;;;;;;;6100296;23;20178;-81
2022/03/16 07:12:48;;;;;;;21.17;17.20;;;;;;;;;;6126394;23;20174;-81
2022/03/16 07:15:18;;;;;;;20.53;16.60;;;;;;;;;;6100649;23;20244;-81
2022/03/16 07:17:46;;;;;;;24.10;18.13;;;;;;;;;;6126307;23;20178;-80
2022/03/16 07:20:15;;;;;;;22.43;17.93;;;;;;;;;;6100506;23;20170;-81
2022/03/16 07:22:44;;;;;;;20.87;15.90;;;;;;;;;;6100218;23;20197;-80
2022/03/16 07:25:29;;;;;;;19.90;15.50;;;;;;;;;;6126322;23;20178;-81
2022/03/16 07:27:57;;;;;;;24.43;19.97;;;;;;;;;;6100922;23;20229;-80
2022/03/16 07:30:27;;;;;;;25.23;21.50;;;;;;;;;;6126423;23;20172;-81
2022/03/16 07:32:55;;;;;;;27.73;20.10;;;;;;;;;;6100353;23;20188;-80
2022/03/16 07:35:26;;;;;;;23.77;16.93;;;;;;;;;;6100692;23;20184;-80
2022/03/16 07:37:55;;;;;;;24.50;18.87;;;;;;;;;;6100816;23;20185;-81
2022/03/16 07:40:24;;;;;;;22.83;18.57;;;;;;;;;;6126303;23;20179;-81
2022/03/16 07:42:59;;;;;;;24.57;17.23;;;;;;;;;;6100602;23;20203;-80
2022/03/16 07:45:30;;;;;;;24.67;21.17;;;;;;;;;;6100489;23;20209;-81
2022/03/16 07:47:59;;;;;;;21.63;17.30;;;;;;;;;;6100471;23;20183;-81
2022/03/16 07:50:28;;;;;;;19.70;17.70;;;;;;;;;;6100206;23;20214;-80
2022/03/16 07:52:58;;;;;;;21.50;16.03;;;;;;;;;;6100524;23;20179;-80
2022/03/16 07:55:27;;;;;;;19.53;15.00;;;;;;;;;;6100506;23;20210;-81
2022/03/16 07:57:56;;;;;;;18.57;15.70;;;;;;;;;;6100398;23;20196;-80
2022/03/16 08:00:25;;;;;;;19.27;16.40;;;;;;;;;;6100021;23;20187;-80
2022/03/16 08:03:01;;;;;;;17.57;13.83;;;;;;;;;;6100379;23;20206;-80
2022/03/16 08:05:33;;;;;;;17.77;14.77;;;;;;;;;;6100528;23;20262;-81
2022/03/16 08:08:39;;;;;;;17.67;14.50;;;;;;;;;;6097750;23;20233;-80
2022/03/16 08:11:18;;;;;;;16.63;12.73;;;;;;;;;;6088975;23;20269;-80
2022/03/16 08:13:48;;;;;;;15.10;12.43;;;;;;;;;;6097695;23;20230;-80
2022/03/16 08:16:27;;;;;;;20.90;13.07;;;;;;;;;;6099706;23;20262;-81
2022/03/16 08:19:02;;;;;;;19.03;14.07;;;;;;;;;;6100330;23;20203;-81
2022/03/16 08:21:34;;;;;;;15.80;11.27;;;;;;;;;;6099414;23;20206;-81
2022/03/16 08:24:36;;;;;;;14.43;11.00;;;;;;;;;;6100076;23;20204;-81
2022/03/16 08:27:25;;;;;;;12.80;11.07;;;;;;;;;;6099320;23;20271;-82
2022/03/16 08:30:05;;;;;;;12.97;10.03;;;;;;;;;;6099943;23;20219;-81
2022/03/16 08:32:57;;;;;;;13.57;11.63;;;;;;;;;;6096881;23;20182;-82
2022/03/16 08:35:29;;;;;;;12.30;9.97;;;;;;;;;;6098125;23;20211;-80
2022/03/16 08:38:05;;;;;;;12.37;9.93;;;;;;;;;;6099568;23;20178;-81
2022/03/16 08:40:34;;;;;;;14.60;9.57;;;;;;;;;;6099758;23;20180;-81
2022/03/16 08:43:05;;;;;;;12.03;9.70;;;;;;;;;;6098311;23;20195;-80
2022/03/16 08:45:42;;;;;;;15.40;9.97;;;;;;;;;;6097598;23;20179;-80
2022/03/16 08:48:25;;;;;;;12.40;9.23;;;;;;;;;;6098784;23;20186;-82
2022/03/16 08:51:15;;;;;;;15.23;11.43;;;;;;;;;;6098674;23;20186;-81
2022/03/16 08:53:47;;;;;;;13.30;10.63;;;;;;;;;;6098461;23;20211;-82
2022/03/16 08:56:23;;;;;;;11.80;9.97;;;;;;;;;;6098555;23;20190;-81
2022/03/16 08:58:55;;;;;;;14.50;11.07;;;;;;;;;;6098449;23;20184;-81
2022/03/16 09:01:26;;;;;;;13.00;10.60;;;;;;;;;;6099383;23;20183;-82
2022/03/16 09:03:55;;;;;;;15.27;13.27;;;;;;;;;;6098780;23;20235;-82
2022/03/16 09:06:31;;;;;;;15.20;12.93;;;;;;;;;;6098719;23;20215;-80
2022/03/16 09:09:01;;;;;;;11.00;8.50;;;;;;;;;;6098673;23;20206;-79
2022/03/16 09:11:34;;;;;;;15.00;10.93;;;;;;;;;;6098335;23;20207;-80
2022/03/16 09:14:09;;;;;;;14.33;11.70;;;;;;;;;;6098764;23;20289;-80
2022/03/16 09:16:47;;;;;;;14.97;11.20;;;;;;;;;;6098834;23;20194;-81
2022/03/16 09:19:20;;;;;;;13.87;11.30;;;;;;;;;;6096500;23;20180;-80
2022/03/16 09:22:00;;;;;;;15.67;12.30;;;;;;;;;;6098242;23;20190;-80
2022/03/16 09:24:32;;;;;;;13.37;11.97;;;;;;;;;;6098354;23;20223;-81
2022/03/16 09:27:04;;;;;;;14.57;12.23;;;;;;;;;;6098696;23;20211;-81
2022/03/16 09:29:36;;;;;;;13.60;11.57;;;;;;;;;;6124477;23;20172;-80
2022/03/16 09:32:10;;;;;;;13.10;10.07;;;;;;;;;;6098716;23;20183;-80
2022/03/16 09:34:40;;;;;;;11.47;9.77;;;;;;;;;;6100375;23;20177;-80
2022/03/16 09:37:18;;;;;;;12.90;11.53;;;;;;;;;;6100092;23;20180;-80
2022/03/16 09:39:48;;;;;;;12.60;9.97;;;;;;;;;;6100625;23;20176;-80
2022/03/16 09:42:25;;;;;;;10.27;8.70;;;;;;;;;;6100273;23;20184;-81
2022/03/16 09:44:55;;;;;;;15.17;11.30;;;;;;;;;;6100623;23;20208;-81
2022/03/16 09:47:30;;;;;;;11.83;8.83;;;;;;;;;;6100060;23;20180;-81
2022/03/16 09:50:02;;;;;;;10.63;8.20;;;;;;;;;;6100155;23;20175;-81
2022/03/16 09:52:34;;;;;;;12.27;10.43;;;;;;;;;;6100238;23;20236;-80
2022/03/16 09:55:06;;;;;;;14.13;9.33;;;;;;;;;;6100333;23;20212;-80
2022/03/16 09:57:37;;;;;;;12.10;10.80;;;;;;;;;;6100542;23;20180;-80
2022/03/16 10:00:17;;;;;;;8.97;7.73;;;;;;;;;;6100934;23;20181;-80
2022/03/16 10:02:48;;;;;;;12.83;9.07;;;;;;;;;;6100166;23;20183;-81
2022/03/16 10:05:28;;;;;;;9.20;8.13;;;;;;;;;;6100694;23;20191;-80
2022/03/16 10:08:05;;;;;;;11.67;9.10;;;;;;;;;;6100383;23;20176;-80
2022/03/16 10:13:33;;;;;;;10.30;8.50;;;;;;;;;;6034427;23;20186;-80
2022/03/16 10:16:14;;;;;;;10.63;8.40;;;;;;;;;;6082180;23;20180;-81
2022/03/16 10:18:54;;;;;;;10.10;9.00;;;;;;;;;;6097661;23;20266;-80
2022/03/16 10:21:30;;;;;;;11.23;7.73;;;;;;;;;;6099418;23;20184;-80
2022/03/16 10:24:05;;;;;;;9.90;7.03;;;;;;;;;;6099845;23;20199;-81
2022/03/16 10:26:40;;;;;;;12.20;8.53;;;;;;;;;;6099588;23;20238;-80
2022/03/16 10:29:16;;;;;;;8.97;8.07;;;;;;;;;;6098133;23;20232;-83
2022/03/16 10:32:00;;;;;;;9.07;7.20;;;;;;;;;;6095785;23;20182;-82
2022/03/16 10:34:29;;;;;;;9.70;7.23;;;;;;;;;;6094038;23;20216;-81
2022/03/16 10:37:00;;;;;;;8.80;6.63;;;;;;;;;;6091744;23;20180;-82
2022/03/16 10:39:37;;;;;;;8.43;6.93;;;;;;;;;;6092744;23;20181;-82
2022/03/16 10:48:00;;;;;;;8.30;7.47;;;;;;;;;;6093143;23;20184;-82
2022/03/16 10:50:41;;;;;;;7.80;6.57;;;;;;;;;;6090850;23;20184;-82
2022/03/16 10:53:28;;;;;;;5.90;5.30;;;;;;;;;;6091593;23;20191;-82
2022/03/16 10:56:16;;;;;;;7.77;6.63;;;;;;;;;;6092452;23;20212;-82
2022/03/16 10:58:51;;;;;;;6.50;5.47;;;;;;;;;;6092668;23;20185;-82
2022/03/16 11:01:25;;;;;;;6.37;5.37;;;;;;;;;;6091706;23;20184;-82
2022/03/16 11:04:04;;;;;;;4.53;4.13;;;;;;;;;;6093031;23;20209;-83
2022/03/16 11:06:36;;;;;;;2.20;2.10;;;;;;;;;;6093169;23;20185;-84
2022/03/16 11:09:28;;;;;;;5.40;4.73;;;;;;;;;;6092096;23;20185;-83
2022/03/16 11:15:12;;;;;;;7.97;5.87;;;;;;;;;;6100941;23;20232;-83
2022/03/16 11:17:56;;;;;;;6.53;5.60;;;;;;;;;;6092850;23;20248;-83
2022/03/16 11:20:46;;;;;;;8.07;6.00;;;;;;;;;;6092491;23;20179;-84
2022/03/16 11:26:24;;;;;;;9.57;8.57;;;;;;;;;;6051474;23;20178;-83
2022/03/16 11:32:14;;;;;;;7.53;6.80;;;;;;;;;;6119033;23;20176;-82
2022/03/16 11:35:13;;;;;;;8.53;7.73;;;;;;;;;;6073208;23;20178;-83
2022/03/16 11:37:51;;;;;;;8.50;7.70;;;;;;;;;;6093587;23;20183;-83
2022/03/16 11:40:31;;;;;;;8.03;7.27;;;;;;;;;;6092181;23;20208;-83
2022/03/16 11:43:18;;;;;;;9.07;8.20;;;;;;;;;;6094328;23;20308;-83
2022/03/16 11:45:54;;;;;;;7.10;6.40;;;;;;;;;;6094154;23;20206;-82
2022/03/16 11:48:58;;;;;;;7.77;6.97;;;;;;;;;;6091621;23;20193;-83
2022/03/16 11:51:30;;;;;;;7.77;5.33;;;;;;;;;;5976607;23;20189;-82
2022/03/16 11:54:05;;;;;;;6.13;5.53;;;;;;;;;;5976052;23;20192;-82
2022/03/16 11:56:53;;;;;;;5.90;4.40;;;;;;;;;;6041689;23;20190;-83
2022/03/16 11:59:31;;;;;;;5.10;4.07;;;;;;;;;;6090814;23;20183;-82
2022/03/16 12:02:18;;;;;;;5.17;4.00;;;;;;;;;;6094188;23;20185;-83
2022/03/16 12:05:02;;;;;;;4.77;4.27;;;;;;;;;;6092002;23;20243;-82
2022/03/16 12:07:40;;;;;;;3.47;3.13;;;;;;;;;;6095975;23;20266;-82
2022/03/16 12:10:25;;;;;;;11.20;7.50;;;;;;;;;;6091436;23;20238;-82
2022/03/16 12:13:10;;;;;;;8.03;6.40;;;;;;;;;;6095972;23;20190;-81
2022/03/16 12:15:50;;;;;;;8.27;6.33;;;;;;;;;;6091784;23;20182;-80
2022/03/16 12:18:26;;;;;;;8.83;6.77;;;;;;;;;;6096684;23;20202;-81
2022/03/16 12:21:16;;;;;;;8.83;7.23;;;;;;;;;;6098001;23;20178;-82
2022/03/16 12:23:58;;;;;;;2.90;2.70;;;;;;;;;;6098206;23;20179;-83
2022/03/16 12:26:32;;;;;;;10.93;7.70;;;;;;;;;;6092138;23;20187;-83
2022/03/16 12:29:10;;;;;;;7.90;6.77;;;;;;;;;;6093606;23;20269;-83
2022/03/16 12:31:55;;;;;;;9.07;7.27;;;;;;;;;;6092765;23;20206;-83
2022/03/16 12:34:29;;;;;;;2.90;2.53;;;;;;;;;;6091559;23;20183;-83
2022/03/16 12:37:01;;;;;;;6.33;5.73;;;;;;;;;;6094071;23;20186;-81
2022/03/16 12:39:31;;;;;;;10.00;9.00;;;;;;;;;;6091601;23;20262;-81
2022/03/16 12:45:03;;;;;;;7.53;6.93;;;;;;;;;;6092694;23;20231;-80
2022/03/16 12:47:34;;;;;;;8.83;8.03;;;;;;;;;;6093994;23;20214;-80
2022/03/16 12:50:05;;;;;;;9.53;5.60;;;;;;;;;;6091873;23;20183;-81
2022/03/16 12:52:33;;;;;;;4.77;3.13;;;;;;;;;;6090772;23;20179;-80
2022/03/16 12:55:11;;;;;;;5.37;3.90;;;;;;;;;;6092360;23;20206;-81
2022/03/16 12:57:39;;;;;;;10.33;7.63;;;;;;;;;;6091886;23;20182;-81
2022/03/16 13:00:13;;;;;;;9.97;8.53;;;;;;;;;;6092045;23;20216;-81
2022/03/16 13:02:43;;;;;;;9.67;6.27;;;;;;;;;;6091818;23;20247;-81
2022/03/16 13:05:18;;;;;;;6.60;4.70;;;;;;;;;;6093067;23;20206;-81
2022/03/16 13:07:46;;;;;;;10.80;8.40;;;;;;;;;;6091016;23;20183;-81
2022/03/16 13:10:15;;;;;;;10.87;7.63;;;;;;;;;;6099632;23;20210;-81
2022/03/16 13:12:56;;;;;;;4.93;3.97;;;;;;;;;;6100252;23;20193;-82
2022/03/16 13:15:26;;;;;;;6.23;5.53;;;;;;;;;;6100721;23;20179;-82
2022/03/16 13:17:57;;;;;;;2.67;2.30;;;;;;;;;;6098563;23;20229;-80
2022/03/16 13:20:31;;;;;;;6.83;4.97;;;;;;;;;;6100126;23;20258;-81
2022/03/16 13:23:04;;;;;;;3.90;3.13;;;;;;;;;;6100041;23;20187;-81
2022/03/16 13:25:34;;;;;;;6.97;5.20;;;;;;;;;;6100574;23;20203;-81
2022/03/16 13:28:09;;;;;;;8.27;6.83;;;;;;;;;;6099721;23;20180;-80
2022/03/16 13:30:37;;;;;;;6.17;5.53;;;;;;;;;;6100674;23;20234;-81
2022/03/16 13:33:07;;;;;;;8.97;7.73;;;;;;;;;;6100275;23;20206;-81
2022/03/16 13:35:40;;;;;;;6.63;5.93;;;;;;;;;;6099678;23;20184;-80
2022/03/16 13:38:10;;;;;;;8.13;7.33;;;;;;;;;;6099706;23;20263;-80
2022/03/16 13:40:40;;;;;;;4.43;3.97;;;;;;;;;;6098988;23;20214;-81
2022/03/16 13:43:11;;;;;;;9.90;3.67;;;;;;;;;;6099151;23;20263;-81
2022/03/16 13:45:41;;;;;;;10.37;7.27;;;;;;;;;;6100262;23;20202;-81
2022/03/16 13:48:12;;;;;;;8.33;5.47;;;;;;;;;;6099518;23;20192;-82
2022/03/16 13:50:44;;;;;;;5.00;4.57;;;;;;;;;;6099573;23;20222;-82
2022/03/16 13:53:17;;;;;;;8.03;6.30;;;;;;;;;;6100074;23;20230;-81
2022/03/16 13:55:47;;;;;;;9.50;6.97;;;;;;;;;;6099087;23;20298;-80
2022/03/16 13:58:18;;;;;;;8.97;7.70;;;;;;;;;;6099944;23;20222;-80
2022/03/16 14:00:48;;;;;;;9.30;7.77;;;;;;;;;;6125294;23;20171;-80
2022/03/16 14:03:23;;;;;;;7.73;6.50;;;;;;;;;;6100275;23;20274;-80
2022/03/16 14:05:54;;;;;;;6.97;3.83;;;;;;;;;;6100748;23;20293;-80
2022/03/16 14:08:23;;;;;;;9.47;8.17;;;;;;;;;;6100652;23;20183;-80
2022/03/16 14:10:55;;;;;;;2.93;2.63;;;;;;;;;;6098256;23;20245;-81
2022/03/16 14:13:25;;;;;;;7.13;5.40;;;;;;;;;;6124797;23;20193;-82
2022/03/16 14:16:12;;;;;;;9.90;6.93;;;;;;;;;;6099317;23;20227;-82
2022/03/16 14:18:41;;;;;;;9.57;5.73;;;;;;;;;;6098288;23;20176;-82
2022/03/16 14:21:12;;;;;;;6.83;6.07;;;;;;;;;;6098877;23;20182;-81
2022/03/16 14:23:43;;;;;;;12.93;8.20;;;;;;;;;;6099784;23;20218;-81
2022/03/16 14:26:19;;;;;;;7.27;5.93;;;;;;;;;;6099184;23;20223;-81
2022/03/16 14:28:50;;;;;;;9.43;7.10;;;;;;;;;;6099270;23;20270;-82
2022/03/16 14:31:21;;;;;;;12.70;6.60;;;;;;;;;;6099186;23;20283;-82
2022/03/16 14:33:50;;;;;;;5.43;4.47;;;;;;;;;;6099622;23;20180;-82
2022/03/16 14:36:26;;;;;;;10.63;7.67;;;;;;;;;;6099709;23;20179;-82
2022/03/16 14:38:59;;;;;;;8.60;7.07;;;;;;;;;;6098710;23;20182;-81
2022/03/16 14:41:27;;;;;;;4.50;2.07;;;;;;;;;;6124719;23;20227;-81
2022/03/16 14:43:57;;;;;;;4.87;3.57;;;;;;;;;;6125682;23;20230;-81
2022/03/16 14:46:28;;;;;;;10.73;7.20;;;;;;;;;;6099918;23;20198;-82
2022/03/16 14:48:59;;;;;;;8.97;4.13;;;;;;;;;;6099858;23;20189;-80
2022/03/16 14:51:30;;;;;;;7.70;6.80;;;;;;;;;;6100188;23;20258;-81
2022/03/16 14:53:59;;;;;;;10.03;6.23;;;;;;;;;;6099356;23;20187;-80
2022/03/16 14:56:27;;;;;;;11.50;7.93;;;;;;;;;;6099387;23;20294;-82
2022/03/16 14:58:56;;;;;;;8.33;7.23;;;;;;;;;;6098472;23;20204;-82
2022/03/16 15:01:25;;;;;;;7.70;6.63;;;;;;;;;;6098016;23;20179;-81
2022/03/16 15:03:54;;;;;;;8.47;6.77;;;;;;;;;;6097742;23;20262;-81
2022/03/16 15:06:22;;;;;;;9.03;7.60;;;;;;;;;;6099505;23;20272;-81
2022/03/16 15:08:54;;;;;;;6.53;4.40;;;;;;;;;;6125528;23;20171;-82
2022/03/16 15:11:23;;;;;;;5.80;4.83;;;;;;;;;;6099640;23;20270;-82
2022/03/16 15:13:53;;;;;;;9.10;6.27;;;;;;;;;;6099232;23;20195;-82
2022/03/16 15:16:25;;;;;;;10.10;6.73;;;;;;;;;;6099744;23;20175;-81
2022/03/16 15:18:54;;;;;;;14.90;6.47;;;;;;;;;;6099924;23;20213;-82